Time;durP1;ratioP1;P1;durP2;ratioP2;P2;SDS_P1;SDS_P2;PMS_P1;PMS_P2;Temp;Humidity;BMP_temperature;BMP_pressure;BME280_temperature;BME280_humidity;BME280_pressure;Samples;Min_cycle;Max_cycle;Signal;HPM_P1;HPM_P2
2022/10/07 00:01:15;;;;;;;15.30;3.65;;;;;;;10.94;100.00;102676.13;5310495;28;20118;-77
2022/10/07 00:03:47;;;;;;;13.48;4.32;;;;;;;10.89;100.00;102672.91;5307688;28;20024;-77
2022/10/07 00:06:20;;;;;;;14.43;4.28;;;;;;;10.89;100.00;102665.06;5310225;28;20038;-77
2022/10/07 00:08:52;;;;;;;10.70;3.60;;;;;;;10.83;100.00;102668.00;5304920;28;20024;-77
2022/10/07 00:11:26;;;;;;;19.90;4.95;;;;;;;10.80;100.00;102666.44;5288278;28;20023;-77
2022/10/07 00:14:00;;;;;;;12.00;4.07;;;;;;;10.81;100.00;102662.88;5293066;28;20043;-77
2022/10/07 00:16:34;;;;;;;11.40;3.85;;;;;;;10.82;100.00;102661.94;5315242;22;20523;-73
2022/10/07 00:19:09;;;;;;;10.35;4.07;;;;;;;10.82;100.00;102655.84;5294720;28;20030;-73
2022/10/07 00:21:41;;;;;;;13.05;3.70;;;;;;;10.77;100.00;102656.09;5297492;28;20021;-73
2022/10/07 00:24:14;;;;;;;14.05;4.45;;;;;;;10.76;100.00;102659.66;5299234;28;20057;-73
2022/10/07 00:26:46;;;;;;;13.57;4.38;;;;;;;10.75;100.00;102649.25;5290193;28;20027;-73
2022/10/07 00:29:17;;;;;;;12.93;3.83;;;;;;;10.65;100.00;102649.78;5290775;28;20515;-73
2022/10/07 00:31:48;;;;;;;11.65;3.65;;;;;;;10.66;100.00;102654.09;5288879;28;20409;-73
2022/10/07 00:34:19;;;;;;;11.23;3.67;;;;;;;10.69;100.00;102647.84;5289641;28;20039;-73
2022/10/07 00:36:51;;;;;;;9.80;3.47;;;;;;;10.65;100.00;102643.69;5285803;28;20032;-73
2022/10/07 00:39:22;;;;;;;14.32;4.07;;;;;;;10.66;100.00;102638.34;5282895;28;20097;-73
2022/10/07 00:41:53;;;;;;;11.43;4.03;;;;;;;10.66;100.00;102640.13;5287211;28;20032;-73
2022/10/07 00:44:31;;;;;;;13.68;4.25;;;;;;;10.71;100.00;102635.47;5287236;28;20119;-73
2022/10/07 00:47:21;;;;;;;10.55;3.55;;;;;;;10.71;100.00;102638.09;5282986;28;20090;-73
2022/10/07 00:49:54;;;;;;;14.32;3.63;;;;;;;10.52;100.00;102634.81;5272485;28;20397;-73
2022/10/07 00:52:29;;;;;;;13.38;4.60;;;;;;;10.58;100.00;102640.56;5286728;28;20101;-73
2022/10/07 00:55:06;;;;;;;12.82;3.50;;;;;;;10.61;100.00;102631.69;5283587;28;20031;-73
2022/10/07 00:57:38;;;;;;;13.35;3.90;;;;;;;10.48;100.00;102624.50;5289565;28;20033;-73
2022/10/07 01:00:10;;;;;;;13.38;3.65;;;;;;;10.48;100.00;102623.66;5285952;28;20039;-72
2022/10/07 01:02:42;;;;;;;12.45;3.13;;;;;;;10.48;100.00;102621.88;5286590;28;20024;-72
2022/10/07 01:05:14;;;;;;;11.95;4.13;;;;;;;10.50;100.00;102613.94;5284853;28;20016;-73
2022/10/07 01:07:48;;;;;;;13.00;4.07;;;;;;;10.47;100.00;102617.59;5287030;28;20111;-73
2022/10/07 01:10:21;;;;;;;14.18;4.07;;;;;;;10.48;100.00;102618.41;5285400;28;20031;-72
2022/10/07 01:13:04;;;;;;;13.88;3.95;;;;;;;10.59;100.00;102609.97;5283418;28;20323;-73
2022/10/07 01:15:48;;;;;;;12.70;3.42;;;;;;;10.58;100.00;102616.16;5266429;28;20553;-73
2022/10/07 01:18:34;;;;;;;12.85;3.67;;;;;;;10.53;100.00;102603.31;5288796;28;20040;-73
2022/10/07 01:22:02;;;;;;;10.85;3.70;;;;;;;10.80;100.00;102606.13;5283543;28;20032;-72
2022/10/07 01:24:51;;;;;;;15.32;4.85;;;;;;;10.50;100.00;102600.00;5212656;28;20549;-73
2022/10/07 01:27:26;;;;;;;12.77;3.90;;;;;;;10.44;100.00;102599.41;5212401;28;20033;-72
2022/10/07 01:30:04;;;;;;;14.60;3.80;;;;;;;10.37;100.00;102592.81;5257584;28;20489;-73
2022/10/07 01:32:40;;;;;;;8.98;4.10;;;;;;;10.39;100.00;102593.59;5288489;28;20032;-72
2022/10/07 01:35:17;;;;;;;9.95;3.50;;;;;;;10.43;100.00;102584.63;5288907;28;20031;-73
2022/10/07 01:37:53;;;;;;;11.23;3.47;;;;;;;10.33;100.00;102580.81;5287534;28;20028;-73
2022/10/07 01:40:30;;;;;;;13.25;3.40;;;;;;;10.35;100.00;102580.75;5284141;28;20477;-73
2022/10/07 01:43:02;;;;;;;12.40;3.92;;;;;;;10.27;100.00;102564.63;5286742;28;20107;-73
2022/10/07 01:45:37;;;;;;;11.13;3.75;;;;;;;10.32;100.00;102563.41;5286099;28;20085;-72
2022/10/07 01:48:09;;;;;;;15.02;4.13;;;;;;;10.26;100.00;102555.06;5286120;28;20031;-72
2022/10/07 01:50:40;;;;;;;13.52;4.80;;;;;;;10.22;100.00;102547.34;5286413;28;20028;-72
2022/10/07 01:53:21;;;;;;;11.23;3.72;;;;;;;10.30;100.00;102552.16;5283349;28;20443;-72
2022/10/07 01:55:58;;;;;;;16.95;4.30;;;;;;;10.30;100.00;102546.09;5276086;28;20115;-73
2022/10/07 01:58:52;;;;;;;12.05;4.47;;;;;;;10.37;100.00;102540.41;5285101;28;20035;-72
2022/10/07 02:01:38;;;;;;;13.07;4.13;;;;;;;10.38;100.00;102534.28;5280180;28;20060;-72
2022/10/07 02:04:30;;;;;;;13.52;4.32;;;;;;;10.37;100.00;102532.56;5288665;28;20024;-72
2022/10/07 02:07:12;;;;;;;15.48;4.03;;;;;;;10.37;100.00;102529.94;5273253;28;20028;-72
2022/10/07 02:09:50;;;;;;;13.15;4.47;;;;;;;10.25;100.00;102525.41;5288195;28;20040;-72
2022/10/07 02:12:46;;;;;;;12.70;4.50;;;;;;;10.27;100.00;102525.34;5286848;28;20027;-72
2022/10/07 02:15:24;;;;;;;13.88;4.55;;;;;;;10.26;100.00;102527.09;5279699;28;20464;-72
2022/10/07 02:18:01;;;;;;;12.93;4.35;;;;;;;10.20;100.00;102519.56;5284783;28;20066;-72
2022/10/07 02:20:36;;;;;;;13.15;4.53;;;;;;;10.21;100.00;102516.84;5286481;28;20029;-73
2022/10/07 02:23:11;;;;;;;11.98;4.25;;;;;;;10.18;100.00;102506.53;5284710;28;20032;-73
2022/10/07 02:25:48;;;;;;;14.82;5.45;;;;;;;10.24;100.00;102508.81;5289176;28;20036;-72
2022/10/07 02:28:22;;;;;;;14.63;4.20;;;;;;;10.18;100.00;102516.16;5284008;28;20504;-72
2022/10/07 02:30:58;;;;;;;12.85;3.95;;;;;;;10.17;100.00;102504.00;5285183;28;20047;-72
2022/10/07 02:33:32;;;;;;;13.73;4.93;;;;;;;10.15;100.00;102500.63;5283202;28;20071;-72
2022/10/07 02:36:10;;;;;;;16.73;4.95;;;;;;;10.21;100.00;102505.53;5281220;28;20025;-72
2022/10/07 02:38:43;;;;;;;10.95;4.03;;;;;;;10.13;100.00;102500.72;5288543;28;20401;-72
2022/10/07 02:41:32;;;;;;;17.37;5.63;;;;;;;10.23;100.00;102491.41;5283767;28;20193;-73
2022/10/07 02:44:27;;;;;;;16.02;4.95;;;;;;;10.34;100.00;102489.97;5281856;28;20686;-72
2022/10/07 02:47:04;;;;;;;12.43;4.75;;;;;;;10.19;100.00;102489.03;5283733;28;20024;-72
2022/10/07 02:49:40;;;;;;;12.75;4.85;;;;;;;10.14;100.00;102481.44;5282424;28;20449;-72
2022/10/07 02:52:18;;;;;;;16.83;4.80;;;;;;;10.18;100.00;102475.09;5283975;28;20115;-72
2022/10/07 02:54:58;;;;;;;16.92;4.93;;;;;;;10.17;100.00;102483.91;5281447;28;20116;-73
2022/10/07 02:57:33;;;;;;;16.42;4.90;;;;;;;10.11;100.00;102483.38;5285274;28;20121;-73
2022/10/07 03:00:06;;;;;;;12.50;4.47;;;;;;;10.03;100.00;102470.72;5283173;28;20059;-73
2022/10/07 03:02:52;;;;;;;14.70;4.75;;;;;;;10.16;100.00;102463.88;5286766;28;20039;-73
2022/10/07 03:05:24;;;;;;;15.60;4.60;;;;;;;10.06;100.00;102477.59;5286505;28;20032;-72
2022/10/07 03:08:02;;;;;;;11.80;4.70;;;;;;;10.13;100.00;102465.84;5282461;28;20039;-73
2022/10/07 03:10:34;;;;;;;14.32;4.07;;;;;;;10.00;100.00;102465.69;5283421;28;20304;-73
2022/10/07 03:13:05;;;;;;;13.75;4.70;;;;;;;10.01;100.00;102469.16;5268559;28;20024;-72
2022/10/07 03:15:39;;;;;;;11.23;4.13;;;;;;;9.96;100.00;102459.78;5284562;28;20665;-72
2022/10/07 03:18:24;;;;;;;16.40;4.50;;;;;;;9.95;100.00;102455.47;5288822;28;20028;-72
2022/10/07 03:20:59;;;;;;;13.77;3.60;;;;;;;9.97;100.00;102450.16;5287760;28;20035;-72
2022/10/07 03:23:31;;;;;;;10.93;4.05;;;;;;;9.92;100.00;102453.00;5287850;28;20024;-72
2022/10/07 03:26:02;;;;;;;15.10;4.25;;;;;;;9.93;100.00;102451.25;5287005;28;20488;-72
2022/10/07 03:28:36;;;;;;;15.15;4.38;;;;;;;9.87;100.00;102446.34;5290942;28;20078;-72
2022/10/07 03:31:09;;;;;;;13.75;4.40;;;;;;;9.84;100.00;102438.66;5289692;28;20039;-72
2022/10/07 03:33:40;;;;;;;13.07;4.15;;;;;;;9.89;100.00;102440.13;5287425;28;20093;-72
2022/10/07 03:36:12;;;;;;;14.05;4.65;;;;;;;9.88;100.00;102438.41;5289866;28;20060;-72
2022/10/07 03:38:43;;;;;;;16.13;4.50;;;;;;;9.85;100.00;102446.47;5283906;28;20024;-72
2022/10/07 03:41:15;;;;;;;13.57;4.50;;;;;;;9.84;100.00;102449.13;5290977;28;20166;-72
2022/10/07 03:43:47;;;;;;;16.20;4.45;;;;;;;9.82;100.00;102440.53;5290331;28;20362;-72
2022/10/07 03:46:18;;;;;;;16.08;4.28;;;;;;;9.77;100.00;102440.78;5283240;28;20077;-72
2022/10/07 03:48:51;;;;;;;14.93;4.47;;;;;;;9.80;100.00;102439.78;5288440;28;20034;-72
2022/10/07 03:51:22;;;;;;;10.68;4.20;;;;;;;9.77;100.00;102429.47;5289215;28;20053;-72
2022/10/07 03:53:56;;;;;;;15.13;4.20;;;;;;;9.73;100.00;102428.78;5285586;28;20033;-72
2022/10/07 03:56:27;;;;;;;11.68;3.58;;;;;;;9.74;100.00;102430.50;5286967;28;20032;-72
2022/10/07 03:58:59;;;;;;;17.85;3.90;;;;;;;9.71;100.00;102434.13;5286260;28;20389;-72
2022/10/07 04:01:30;;;;;;;10.18;4.55;;;;;;;9.70;100.00;102426.38;5265258;28;20032;-72
2022/10/07 04:04:02;;;;;;;13.88;5.15;;;;;;;9.71;100.00;102425.44;5288911;28;20089;-72
2022/10/07 04:06:33;;;;;;;12.50;4.05;;;;;;;9.69;100.00;102425.50;5285052;28;20056;-72
2022/10/07 04:09:05;;;;;;;15.13;4.35;;;;;;;9.62;100.00;102421.56;5286148;28;20024;-72
2022/10/07 04:11:39;;;;;;;12.90;3.95;;;;;;;9.61;100.00;102426.88;5286422;28;20358;-72
2022/10/07 04:14:10;;;;;;;11.30;4.25;;;;;;;9.59;100.00;102416.50;5287444;28;20036;-72
2022/10/07 04:16:41;;;;;;;12.57;4.50;;;;;;;9.63;100.00;102420.63;5289165;28;20048;-72
2022/10/07 04:19:13;;;;;;;16.08;4.13;;;;;;;9.65;100.00;102415.31;5284890;28;20028;-71
2022/10/07 04:21:44;;;;;;;15.10;3.92;;;;;;;9.66;100.00;102416.97;5290655;28;20032;-71
2022/10/07 04:24:15;;;;;;;20.13;4.53;;;;;;;9.63;100.00;102415.41;5285338;28;20020;-71
2022/10/07 04:26:47;;;;;;;13.27;4.55;;;;;;;9.68;100.00;102415.13;5285567;28;20037;-71
2022/10/07 04:29:18;;;;;;;17.98;4.90;;;;;;;9.69;100.00;102420.25;5285743;28;20056;-71
2022/10/07 04:31:49;;;;;;;15.25;4.65;;;;;;;9.66;100.00;102407.38;5283815;28;20296;-71
2022/10/07 04:34:21;;;;;;;13.32;4.53;;;;;;;9.63;100.00;102402.31;5286795;28;20040;-72
2022/10/07 04:36:53;;;;;;;14.98;4.82;;;;;;;9.58;100.00;102406.94;5284544;28;20027;-71
2022/10/07 04:39:24;;;;;;;15.88;4.50;;;;;;;9.62;100.00;102418.06;5282516;28;20032;-72
2022/10/07 04:41:55;;;;;;;11.70;4.20;;;;;;;9.56;100.00;102416.66;5273080;28;20074;-71
2022/10/07 04:44:27;;;;;;;15.68;4.70;;;;;;;9.53;100.00;102416.81;5287499;28;20039;-72
2022/10/07 04:46:58;;;;;;;14.50;5.18;;;;;;;9.52;100.00;102419.53;5286382;28;20039;-72
2022/10/07 04:49:30;;;;;;;19.25;5.05;;;;;;;9.49;100.00;102420.53;5283154;28;20032;-72
2022/10/07 04:52:01;;;;;;;16.40;5.03;;;;;;;9.50;100.00;102411.75;5289443;28;20087;-72
2022/10/07 04:54:32;;;;;;;12.85;4.60;;;;;;;9.46;100.00;102413.69;5285882;28;20032;-72
2022/10/07 04:57:04;;;;;;;13.85;5.03;;;;;;;9.44;100.00;102412.94;5283347;28;20043;-72
2022/10/07 04:59:35;;;;;;;18.13;5.63;;;;;;;9.41;100.00;102405.28;5286124;28;20050;-72
2022/10/07 05:02:07;;;;;;;14.18;4.78;;;;;;;9.41;100.00;102396.59;5284926;28;20035;-72
2022/10/07 05:04:38;;;;;;;19.17;4.90;;;;;;;9.41;100.00;102402.66;5287144;28;20036;-72
2022/10/07 05:07:09;;;;;;;14.57;4.43;;;;;;;9.44;100.00;102392.03;5284666;28;20025;-72
2022/10/07 05:09:41;;;;;;;11.68;4.38;;;;;;;9.38;100.00;102394.97;5291845;28;20036;-72
2022/10/07 05:12:12;;;;;;;18.52;5.05;;;;;;;9.36;100.00;102398.63;5263685;28;20024;-72
2022/10/07 05:14:44;;;;;;;12.63;4.50;;;;;;;9.34;100.00;102393.44;5280607;28;20074;-72
2022/10/07 05:17:15;;;;;;;12.95;5.07;;;;;;;9.32;100.00;102394.44;5288865;28;20098;-72
2022/10/07 05:19:47;;;;;;;16.90;5.47;;;;;;;9.34;100.00;102397.84;5283193;28;20516;-71
2022/10/07 05:22:18;;;;;;;11.95;4.28;;;;;;;9.31;100.00;102380.53;5283384;28;20478;-71
2022/10/07 05:24:49;;;;;;;15.45;4.90;;;;;;;9.32;100.00;102379.63;5283824;28;20028;-71
2022/10/07 05:27:21;;;;;;;9.68;3.95;;;;;;;9.33;100.00;102380.47;5286610;28;20067;-71
2022/10/07 05:29:52;;;;;;;15.20;5.03;;;;;;;9.31;100.00;102382.31;5285110;28;20039;-71
2022/10/07 05:32:24;;;;;;;15.18;5.03;;;;;;;9.27;100.00;102371.16;5266962;28;20465;-71
2022/10/07 05:34:56;;;;;;;19.50;4.85;;;;;;;9.31;100.00;102377.09;5285821;28;20024;-71
2022/10/07 05:37:27;;;;;;;15.57;4.18;;;;;;;9.36;100.00;102370.69;5288808;28;20028;-71
2022/10/07 05:39:58;;;;;;;15.68;4.85;;;;;;;9.32;100.00;102371.78;5284955;28;20027;-71
2022/10/07 05:42:29;;;;;;;17.60;5.22;;;;;;;9.32;100.00;102374.41;5286012;28;20020;-71
2022/10/07 05:45:03;;;;;;;14.75;5.78;;;;;;;9.32;100.00;102378.75;5287039;28;20060;-71
2022/10/07 05:47:34;;;;;;;14.07;4.32;;;;;;;9.32;100.00;102377.00;5286580;28;20482;-71
2022/10/07 05:50:06;;;;;;;16.83;4.72;;;;;;;9.31;100.00;102366.63;5286610;28;20018;-71
2022/10/07 05:52:38;;;;;;;11.40;3.78;;;;;;;9.31;100.00;102364.00;5284821;28;20040;-71
2022/10/07 05:55:09;;;;;;;15.73;4.53;;;;;;;9.33;100.00;102365.63;5286431;28;20031;-71
2022/10/07 05:57:40;;;;;;;15.10;4.63;;;;;;;9.31;100.00;102369.22;5287025;28;20059;-71
2022/10/07 06:00:12;;;;;;;15.80;4.00;;;;;;;9.32;100.00;102361.31;5286267;28;20021;-71
2022/10/07 06:02:43;;;;;;;13.38;4.03;;;;;;;9.35;100.00;102363.75;5287973;28;20026;-71
2022/10/07 06:05:14;;;;;;;14.40;5.25;;;;;;;9.34;100.00;102361.22;5290355;28;20032;-71
2022/10/07 06:07:45;;;;;;;12.05;4.13;;;;;;;9.38;100.00;102363.59;5281784;28;20043;-71
2022/10/07 06:13:08;;;;;;;13.95;4.22;;;;;;;9.37;100.00;102361.06;5279917;28;20043;-71
2022/10/07 06:18:13;;;;;;;12.95;4.18;;;;;;;9.38;100.00;102360.97;5224910;28;20461;-75
2022/10/07 06:20:58;;;;;;;13.35;3.83;;;;;;;9.50;100.00;102356.81;5231561;28;20025;-76
2022/10/07 06:23:30;;;;;;;13.85;3.90;;;;;;;9.36;100.00;102349.75;5235524;28;20029;-76
2022/10/07 06:26:04;;;;;;;13.00;3.97;;;;;;;9.46;100.00;102344.84;5232687;28;20052;-76
2022/10/07 06:28:37;;;;;;;16.70;4.20;;;;;;;9.43;100.00;102345.88;5233911;28;20032;-77
2022/10/07 06:31:11;;;;;;;13.50;3.33;;;;;;;9.54;100.00;102352.25;5226043;28;20025;-75
2022/10/07 06:33:42;;;;;;;13.25;3.63;;;;;;;9.49;100.00;102344.66;5232645;28;20127;-75
2022/10/07 06:36:14;;;;;;;13.73;3.90;;;;;;;9.53;100.00;102347.97;5232527;28;20033;-76
2022/10/07 06:38:47;;;;;;;14.85;4.00;;;;;;;9.52;100.00;102335.81;5234309;28;20032;-75
2022/10/07 06:41:20;;;;;;;15.27;3.90;;;;;;;9.63;100.00;102341.28;5234017;28;20029;-78
2022/10/07 06:43:56;;;;;;;11.50;3.50;;;;;;;9.71;100.00;102355.63;5234324;28;20471;-76
2022/10/07 06:46:27;;;;;;;13.85;3.72;;;;;;;9.65;100.00;102344.66;5233021;28;20535;-76
2022/10/07 06:48:58;;;;;;;12.32;3.65;;;;;;;9.66;100.00;102344.56;5233948;28;20443;-75
2022/10/07 06:51:29;;;;;;;13.77;3.75;;;;;;;9.75;100.00;102346.66;5234926;28;20025;-75
2022/10/07 06:54:01;;;;;;;12.65;3.88;;;;;;;9.80;100.00;102346.38;5232276;28;20031;-76
2022/10/07 06:56:32;;;;;;;11.32;3.97;;;;;;;9.83;100.00;102340.97;5216687;28;20470;-77
2022/10/07 06:59:04;;;;;;;16.90;4.20;;;;;;;9.84;100.00;102349.66;5234858;28;20025;-76
2022/10/07 07:01:36;;;;;;;13.55;3.10;;;;;;;9.95;100.00;102348.13;5233051;28;20037;-75
2022/10/07 07:04:07;;;;;;;12.88;3.90;;;;;;;9.96;100.00;102348.94;5233498;28;20025;-78
2022/10/07 07:06:38;;;;;;;10.45;3.90;;;;;;;10.06;100.00;102351.91;5227357;28;20025;-77
2022/10/07 07:09:09;;;;;;;16.63;4.00;;;;;;;10.08;100.00;102356.13;5215438;28;20032;-76
2022/10/07 07:11:43;;;;;;;11.35;3.33;;;;;;;10.14;100.00;102354.91;5234261;28;20060;-76
2022/10/07 07:14:14;;;;;;;9.93;3.58;;;;;;;10.19;100.00;102351.09;5231269;28;20033;-76
2022/10/07 07:16:45;;;;;;;13.07;3.05;;;;;;;10.26;100.00;102353.34;5234564;28;20045;-76
2022/10/07 07:19:16;;;;;;;13.15;4.05;;;;;;;10.30;100.00;102347.84;5234571;28;20478;-76
2022/10/07 07:21:48;;;;;;;17.10;4.20;;;;;;;10.33;100.00;102362.53;5232473;28;20068;-76
2022/10/07 07:24:19;;;;;;;14.15;4.30;;;;;;;10.40;100.00;102362.09;5234067;28;20025;-77
2022/10/07 07:26:51;;;;;;;15.35;4.10;;;;;;;10.44;100.00;102362.75;5235153;28;20034;-76
2022/10/07 07:29:22;;;;;;;13.45;3.63;;;;;;;10.48;100.00;102356.38;5217521;28;20029;-76
2022/10/07 07:31:53;;;;;;;20.90;4.40;;;;;;;10.54;100.00;102363.06;5234003;28;20029;-76
2022/10/07 07:34:24;;;;;;;17.13;4.45;;;;;;;10.61;100.00;102365.22;5231954;28;20080;-79
2022/10/07 07:36:56;;;;;;;9.68;3.45;;;;;;;10.68;100.00;102363.91;5235029;28;20030;-77
2022/10/07 07:39:27;;;;;;;15.35;4.60;;;;;;;10.76;100.00;102350.31;5235532;28;20032;-76
2022/10/07 07:41:58;;;;;;;10.55;3.35;;;;;;;10.79;100.00;102349.28;5235128;28;20037;-76
2022/10/07 07:44:30;;;;;;;15.50;4.57;;;;;;;10.77;100.00;102352.00;5214863;28;20049;-76
2022/10/07 07:47:01;;;;;;;16.80;4.00;;;;;;;10.91;100.00;102348.50;5234898;28;20061;-77
2022/10/07 07:49:34;;;;;;;14.43;4.15;;;;;;;10.95;100.00;102347.41;5230925;28;20478;-77
2022/10/07 07:52:06;;;;;;;14.38;3.40;;;;;;;11.04;100.00;102344.19;5234377;28;20075;-75
2022/10/07 07:54:38;;;;;;;11.77;3.88;;;;;;;11.13;100.00;102351.47;5234588;28;20172;-76
2022/10/07 07:57:10;;;;;;;12.93;3.67;;;;;;;11.18;100.00;102351.22;5233454;28;20033;-76
2022/10/07 07:59:41;;;;;;;17.10;4.28;;;;;;;11.22;100.00;102350.06;5235361;28;20030;-77
2022/10/07 08:02:12;;;;;;;15.45;4.68;;;;;;;11.28;100.00;102354.06;5236659;28;20033;-76
2022/10/07 08:04:44;;;;;;;14.60;4.32;;;;;;;11.33;100.00;102349.41;5234228;28;20044;-75
2022/10/07 08:07:15;;;;;;;12.27;3.88;;;;;;;11.38;100.00;102348.16;5231841;28;20026;-77
2022/10/07 08:09:47;;;;;;;14.20;4.57;;;;;;;11.43;100.00;102347.84;5214185;28;20044;-76
2022/10/07 08:12:20;;;;;;;11.98;2.97;;;;;;;11.52;100.00;102344.63;5236950;28;20485;-76
2022/10/07 08:14:52;;;;;;;12.15;3.72;;;;;;;11.63;100.00;102341.28;5236087;28;20188;-77
2022/10/07 08:17:23;;;;;;;17.42;4.53;;;;;;;11.64;100.00;102345.63;5233131;28;20038;-77
2022/10/07 08:19:55;;;;;;;14.60;3.97;;;;;;;11.67;100.00;102334.94;5217721;28;20057;-77
2022/10/07 08:22:26;;;;;;;19.23;4.65;;;;;;;11.79;100.00;102341.16;5237031;28;20029;-76
2022/10/07 08:24:59;;;;;;;12.98;3.70;;;;;;;11.89;100.00;102335.22;5233925;28;20033;-78
2022/10/07 08:27:30;;;;;;;11.40;3.47;;;;;;;11.98;100.00;102331.13;5236947;28;20108;-78
2022/10/07 08:30:01;;;;;;;15.45;3.78;;;;;;;12.10;100.00;102326.84;5236350;28;20113;-78
2022/10/07 08:32:33;;;;;;;12.57;3.58;;;;;;;12.18;100.00;102330.63;5236015;28;20034;-76
2022/10/07 08:35:04;;;;;;;13.23;3.55;;;;;;;12.23;100.00;102317.16;5236402;28;20048;-78
2022/10/07 08:37:36;;;;;;;12.55;3.78;;;;;;;12.40;100.00;102337.88;5220052;28;20141;-75
2022/10/07 08:40:14;;;;;;;15.35;3.47;;;;;;;12.61;100.00;102334.72;5237911;28;20026;-76
2022/10/07 08:42:46;;;;;;;11.63;3.45;;;;;;;12.64;100.00;102330.06;5235256;28;20021;-80
2022/10/07 08:45:30;;;;;;;12.73;3.55;;;;;;;12.80;100.00;102321.94;5236714;28;20402;-76
2022/10/07 08:48:06;;;;;;;13.57;3.30;;;;;;;12.91;100.00;102316.75;5234421;28;20033;-76
2022/10/07 08:51:03;;;;;;;15.48;3.55;;;;;;;13.24;100.00;102309.22;5235030;28;20108;-79
2022/10/07 08:53:36;;;;;;;14.25;3.58;;;;;;;13.22;100.00;102309.31;5237114;28;20068;-76
2022/10/07 08:56:14;;;;;;;11.55;2.90;;;;;;;13.43;100.00;102309.56;5237946;28;20018;-79
2022/10/07 08:59:13;;;;;;;11.88;2.85;;;;;;;13.67;100.00;102301.63;5237039;28;20033;-79
2022/10/07 09:02:18;;;;;;;12.35;3.17;;;;;;;13.73;100.00;102297.72;5233039;28;20036;-76
2022/10/07 09:05:00;;;;;;;13.55;3.38;;;;;;;13.72;100.00;102299.50;5233792;28;20033;-79
2022/10/07 09:07:46;;;;;;;13.70;3.42;;;;;;;13.69;100.00;102270.75;5237135;28;20033;-79
2022/10/07 09:10:30;;;;;;;8.75;3.08;;;;;;;13.80;100.00;102294.50;5237282;28;20033;-76
2022/10/07 09:13:04;;;;;;;;;;;;;;;14.30;100.00;102294.22;5237833;28;20025;-76
2022/10/07 09:15:53;;;;;;;9.68;2.85;;;;;;;14.15;100.00;102290.97;5235074;28;19913;-75
2022/10/07 09:18:32;;;;;;;12.88;3.38;;;;;;;14.27;100.00;102294.47;5237217;28;20097;-76
2022/10/07 09:21:15;;;;;;;16.10;3.17;;;;;;;14.34;100.00;102285.94;5229151;28;20060;-81
2022/10/07 09:23:49;;;;;;;11.10;2.83;;;;;;;14.45;100.00;102284.28;5234782;28;20550;-76
2022/10/07 09:26:20;;;;;;;13.35;2.88;;;;;;;14.62;100.00;102286.44;5232338;28;20131;-78
2022/10/07 09:28:52;;;;;;;9.43;2.95;;;;;;;14.73;100.00;102283.81;5237399;28;20116;-81
2022/10/07 09:31:23;;;;;;;18.05;3.70;;;;;;;14.96;100.00;102281.13;5235565;28;20029;-76
2022/10/07 09:33:55;;;;;;;10.93;2.90;;;;;;;14.99;100.00;102270.31;5236578;28;20026;-80
2022/10/07 09:36:26;;;;;;;9.20;2.50;;;;;;;15.04;100.00;102270.81;5236553;28;20056;-76
2022/10/07 09:39:15;;;;;;;10.60;2.83;;;;;;;15.32;100.00;102272.03;5229353;28;20371;-77
2022/10/07 09:41:47;;;;;;;13.05;2.78;;;;;;;15.29;100.00;102267.81;5235078;28;20080;-76
2022/10/07 09:44:26;;;;;;;10.40;3.38;;;;;;;15.50;100.00;102267.88;5231936;28;20690;-76
2022/10/07 09:46:58;;;;;;;12.20;3.28;;;;;;;15.54;100.00;102264.00;5233240;28;20467;-81
2022/10/07 09:49:40;;;;;;;12.17;3.30;;;;;;;15.62;100.00;102260.72;5216699;28;20025;-78
2022/10/07 09:52:30;;;;;;;11.57;3.00;;;;;;;15.74;100.00;102265.00;5233700;28;20025;-80
2022/10/07 09:55:31;;;;;;;14.52;2.83;;;;;;;15.92;100.00;102265.25;5234956;28;20041;-81
2022/10/07 09:58:06;;;;;;;11.45;2.90;;;;;;;15.88;100.00;102252.44;5234248;28;20045;-76
2022/10/07 10:00:42;;;;;;;14.35;3.05;;;;;;;16.11;100.00;102240.72;5236407;28;20116;-76
2022/10/07 10:03:14;;;;;;;9.70;2.70;;;;;;;16.11;100.00;102250.47;5236451;28;20021;-79
2022/10/07 10:05:57;;;;;;;10.77;3.33;;;;;;;16.42;100.00;102253.94;5232825;28;20429;-76
2022/10/07 10:08:30;;;;;;;12.23;3.17;;;;;;;16.38;100.00;102249.88;5218773;28;20493;-76
2022/10/07 10:11:24;;;;;;;9.52;2.78;;;;;;;16.46;100.00;102239.47;5233320;28;20082;-79
2022/10/07 10:13:56;;;;;;;10.00;2.97;;;;;;;16.53;100.00;102235.31;5216931;28;20037;-76
2022/10/07 10:16:36;;;;;;;10.68;2.85;;;;;;;16.67;100.00;102237.59;5236196;28;20067;-78
2022/10/07 10:19:25;;;;;;;10.20;2.53;;;;;;;16.96;100.00;102227.06;5237024;28;20363;-76
2022/10/07 10:21:57;;;;;;;8.85;2.90;;;;;;;16.75;100.00;102208.66;5227739;28;20057;-78
2022/10/07 10:27:38;;;;;;;10.27;2.60;;;;;;;17.03;95.15;102198.22;5231463;28;20440;-76
2022/10/07 10:30:19;;;;;;;13.05;3.28;;;;;;;17.19;97.76;102202.94;5234020;28;20029;-78
2022/10/07 10:33:13;;;;;;;10.90;2.95;;;;;;;17.44;94.45;102193.59;5229644;28;20394;-75
2022/10/07 10:35:52;;;;;;;13.60;2.97;;;;;;;17.46;95.56;102178.38;5229728;28;20067;-76
2022/10/07 10:38:39;;;;;;;11.40;2.78;;;;;;;17.62;90.76;102188.41;5229822;28;20037;-76
2022/10/07 10:41:34;;;;;;;12.43;3.08;;;;;;;17.56;86.37;102176.53;5227192;28;20040;-77
2022/10/07 10:44:36;;;;;;;12.90;3.35;;;;;;;17.96;88.10;102180.78;5229748;28;20072;-75
2022/10/07 10:47:16;;;;;;;15.20;2.47;;;;;;;17.90;84.81;102184.00;5235034;28;20029;-80
2022/10/07 10:50:11;;;;;;;13.05;2.53;;;;;;;17.94;77.57;102169.47;5235305;28;20033;-75
2022/10/07 10:53:03;;;;;;;12.45;2.90;;;;;;;18.01;81.55;102172.38;5235853;28;20043;-77
2022/10/07 10:55:54;;;;;;;12.73;2.73;;;;;;;18.06;77.25;102170.94;5215082;28;20758;-74
2022/10/07 10:58:34;;;;;;;10.27;2.75;;;;;;;17.86;79.99;102158.78;5232948;28;20072;-75
2022/10/07 11:01:13;;;;;;;10.18;2.45;;;;;;;17.97;78.13;102161.25;5233574;28;20118;-74
2022/10/07 11:04:03;;;;;;;7.32;2.03;;;;;;;18.09;78.47;102164.53;5235009;28;20028;-75
2022/10/07 11:06:37;;;;;;;11.38;2.53;;;;;;;17.90;77.93;102154.84;5235653;28;20021;-76
2022/10/07 11:09:29;;;;;;;9.00;2.55;;;;;;;18.16;79.26;102149.69;5235986;28;20089;-75
2022/10/07 11:12:04;;;;;;;11.93;2.83;;;;;;;18.16;74.84;102147.88;5233579;28;20033;-74
2022/10/07 11:14:41;;;;;;;9.13;2.30;;;;;;;18.37;76.85;102136.16;5234731;28;20049;-75
2022/10/07 11:17:14;;;;;;;11.43;2.42;;;;;;;18.26;73.86;102139.88;5233713;28;20053;-77
2022/10/07 11:20:10;;;;;;;11.00;2.38;;;;;;;18.51;72.42;102135.66;5233844;28;20033;-74
2022/10/07 11:22:52;;;;;;;7.18;2.55;;;;;;;18.38;71.47;102135.19;5235757;28;20116;-74
2022/10/07 11:25:37;;;;;;;9.82;2.50;;;;;;;18.41;72.40;102130.41;5234584;28;20108;-75
2022/10/07 11:28:26;;;;;;;10.43;2.95;;;;;;;18.61;72.04;102122.31;5234992;28;20433;-73
2022/10/07 11:31:31;;;;;;;8.02;2.53;;;;;;;18.79;73.05;102112.56;5235374;28;20037;-74
2022/10/07 11:34:13;;;;;;;11.75;2.47;;;;;;;18.76;69.53;102107.56;5235369;28;20033;-74
2022/10/07 11:37:02;;;;;;;10.18;2.10;;;;;;;18.75;68.92;102100.56;5232687;28;20024;-73
2022/10/07 11:39:37;;;;;;;7.55;2.13;;;;;;;18.84;71.71;102091.69;5237729;28;20116;-74
2022/10/07 11:42:14;;;;;;;9.68;2.47;;;;;;;18.96;68.27;102087.78;5239231;28;20048;-74
2022/10/07 11:44:55;;;;;;;9.27;2.35;;;;;;;18.89;69.23;102081.44;5238464;28;20036;-73
2022/10/07 11:47:34;;;;;;;10.68;2.45;;;;;;;18.91;66.92;102083.94;5237661;28;20028;-73
2022/10/07 11:50:23;;;;;;;10.93;2.97;;;;;;;18.85;65.51;102068.63;5239465;28;20033;-73
2022/10/07 11:53:04;;;;;;;7.93;2.08;;;;;;;19.02;67.72;102070.41;5233795;28;20163;-73
2022/10/07 11:55:57;;;;;;;8.00;2.53;;;;;;;19.04;67.24;102070.25;5238695;28;20112;-74
2022/10/07 11:58:32;;;;;;;11.48;2.38;;;;;;;19.14;64.67;102066.50;5235440;28;20061;-73
2022/10/07 12:01:30;;;;;;;8.50;2.13;;;;;;;19.48;64.30;102047.09;5235431;28;20212;-74
2022/10/07 12:04:20;;;;;;;9.70;2.38;;;;;;;19.46;65.84;102054.38;5232309;28;20116;-74